createdAt,value
2023-02-19T00:01:21.867Z,99282.28
2023-02-19T00:03:57.047Z,99300.25
2023-02-19T00:06:26.692Z,99292.63
2023-02-19T00:08:53.667Z,99277.09
2023-02-19T00:11:22.548Z,99280.53
2023-02-19T00:13:52.846Z,99273.63
2023-02-19T00:16:22.807Z,99276.88
2023-02-19T00:18:50.045Z,99276.91
2023-02-19T00:21:17.968Z,99272.03
2023-02-19T00:23:52.619Z,99278.94
2023-02-19T00:26:19.958Z,99284.28
2023-02-19T00:28:50.402Z,99278.69
2023-02-19T00:31:25.960Z,99270.47
2023-02-19T00:33:55.788Z,99262.84
2023-02-19T00:36:24.060Z,99259.59
2023-02-19T00:38:51.410Z,99246.31
2023-02-19T00:41:19.701Z,99227.91
2023-02-19T00:43:51.439Z,99235.25
2023-02-19T00:46:20.472Z,99244.16
2023-02-19T00:48:47.808Z,99232.84
2023-02-19T00:51:15.573Z,99232.31
2023-02-19T00:53:43.466Z,99226.63
2023-02-19T00:56:10.987Z,99218.09
2023-02-19T00:58:38.476Z,99208.09
2023-02-19T01:01:06.691Z,99201.72
2023-02-19T01:03:35.188Z,99221.63
2023-02-19T01:06:03.879Z,99204.81
2023-02-19T01:08:31.419Z,99206.91
2023-02-19T01:11:01.663Z,99208.22
2023-02-19T01:13:29.428Z,99198.22
2023-02-19T01:16:09.654Z,99202.53
2023-02-19T01:18:36.938Z,99206.00
2023-02-19T01:21:09.754Z,99210.56
2023-02-19T01:23:37.300Z,99217.78
2023-02-19T01:26:09.551Z,99195.41
2023-02-19T01:28:36.495Z,99196.59
2023-02-19T01:31:05.261Z,99199.06
2023-02-19T01:33:33.523Z,99199.44
2023-02-19T01:36:03.523Z,99181.47
2023-02-19T01:38:30.321Z,99190.09
2023-02-19T01:41:03.141Z,99194.25
2023-02-19T01:43:31.653Z,99205.00
2023-02-19T01:45:58.669Z,99182.38
2023-02-19T01:48:33.996Z,99201.88
2023-02-19T01:51:09.635Z,99177.25
2023-02-19T01:53:40.098Z,99198.91
2023-02-19T01:56:08.571Z,99211.59
2023-02-19T01:58:37.472Z,99212.50
2023-02-19T02:01:06.885Z,99213.63
2023-02-19T02:03:35.577Z,99210.97
2023-02-19T02:06:16.004Z,99228.53
2023-02-19T02:09:01.290Z,99211.22
2023-02-19T02:11:29.329Z,99209.09
2023-02-19T02:13:57.033Z,99209.50
2023-02-19T02:16:30.414Z,99222.13
2023-02-19T02:19:22.897Z,99213.91
2023-02-19T02:21:55.510Z,99230.56
2023-02-19T02:24:50.256Z,99230.75
2023-02-19T02:27:39.736Z,99233.56
2023-02-19T02:30:22.218Z,99232.78
2023-02-19T02:33:23.434Z,99232.78
2023-02-19T02:35:59.913Z,99229.81
2023-02-19T02:38:31.884Z,99221.53
2023-02-19T02:40:59.074Z,99224.47
2023-02-19T02:43:26.274Z,99250.09
2023-02-19T02:45:54.071Z,99249.69
2023-02-19T02:48:37.031Z,99250.28
2023-02-19T02:51:13.156Z,99251.75
2023-02-19T02:54:16.051Z,99253.69
2023-02-19T02:56:46.636Z,99247.75
2023-02-19T02:59:18.704Z,99249.97
2023-02-19T03:02:10.363Z,99256.53
2023-02-19T03:05:11.232Z,99257.81
2023-02-19T03:07:44.013Z,99258.28
2023-02-19T03:10:15.828Z,99247.63
2023-02-19T03:13:03.843Z,99248.66
2023-02-19T03:15:55.998Z,99255.31
2023-02-19T03:18:41.848Z,99257.59
2023-02-19T03:21:10.383Z,99253.03
2023-02-19T03:23:57.735Z,99251.69
2023-02-19T03:26:26.343Z,99250.34
2023-02-19T03:29:14.141Z,99259.75
2023-02-19T03:31:44.589Z,99256.03
2023-02-19T03:34:21.285Z,99270.94
2023-02-19T03:36:54.191Z,99279.22
2023-02-19T03:39:23.893Z,99286.59
2023-02-19T03:42:00.239Z,99285.25
2023-02-19T03:44:48.957Z,99279.22
2023-02-19T03:47:23.883Z,99292.59
2023-02-19T03:50:19.732Z,99238.41
2023-02-19T03:53:06.028Z,99294.13
2023-02-19T03:55:46.346Z,99294.81
2023-02-19T03:58:32.060Z,99301.81
2023-02-19T04:01:09.338Z,99293.13
2023-02-19T04:03:52.591Z,99288.25
2023-02-19T04:06:32.179Z,99294.56
2023-02-19T04:09:02.988Z,99294.56
2023-02-19T04:11:32.095Z,99314.00
2023-02-19T04:14:23.931Z,99315.94
2023-02-19T04:16:56.773Z,99323.06
2023-02-19T04:19:26.629Z,99318.97
2023-02-19T04:21:54.998Z,99329.25
2023-02-19T04:24:46.725Z,99343.69
2023-02-19T04:27:14.254Z,99344.50
2023-02-19T04:29:41.261Z,99342.53
2023-02-19T04:32:11.183Z,99338.50
2023-02-19T04:34:38.003Z,99347.28
2023-02-19T04:37:05.084Z,99351.34
2023-02-19T04:39:32.156Z,99353.03
2023-02-19T04:41:59.073Z,99359.09
2023-02-19T04:44:27.016Z,99354.22
2023-02-19T04:46:53.870Z,99358.06
2023-02-19T04:49:20.650Z,99351.84
2023-02-19T04:51:47.634Z,99348.06
2023-02-19T04:54:14.376Z,99353.44
2023-02-19T04:56:41.352Z,99354.25
2023-02-19T04:59:08.320Z,99363.28
2023-02-19T05:01:35.352Z,99351.03
2023-02-19T05:04:02.391Z,99361.91
2023-02-19T05:06:29.186Z,99352.19
2023-02-19T05:08:56.036Z,99348.06
2023-02-19T05:11:23.851Z,99362.38
2023-02-19T05:13:50.922Z,99347.06
2023-02-19T05:16:18.330Z,99355.59
2023-02-19T05:18:46.570Z,99351.91
2023-02-19T05:21:14.349Z,99362.78
2023-02-19T05:23:41.869Z,99350.63
2023-02-19T05:26:12.659Z,99358.25
2023-02-19T05:28:39.441Z,99363.03
2023-02-19T05:31:09.030Z,99363.44
2023-02-19T05:33:37.154Z,99376.34
2023-02-19T05:36:13.059Z,99385.50
2023-02-19T05:38:41.375Z,99396.09
2023-02-19T05:41:13.170Z,99389.91
2023-02-19T05:43:42.038Z,99396.63
2023-02-19T05:46:10.478Z,99384.84
2023-02-19T05:48:37.627Z,99403.94
2023-02-19T05:51:06.374Z,99413.59
2023-02-19T05:53:33.812Z,99420.03
2023-02-19T05:56:00.734Z,99408.53
2023-02-19T05:58:28.256Z,99419.53
2023-02-19T06:00:56.133Z,99431.44
2023-02-19T06:03:23.458Z,99436.34
2023-02-19T06:05:50.357Z,99444.47
2023-02-19T06:08:17.173Z,99425.66
2023-02-19T06:10:44.109Z,99445.81
2023-02-19T06:13:11.575Z,99450.88
2023-02-19T06:15:38.684Z,99453.31
2023-02-19T06:18:05.724Z,99451.97
2023-02-19T06:20:33.202Z,99439.97
2023-02-19T06:23:00.117Z,99428.84
2023-02-19T06:25:26.858Z,99434.00
2023-02-19T06:27:53.913Z,99438.41
2023-02-19T06:30:20.945Z,99430.03
2023-02-19T06:32:52.395Z,99437.81
2023-02-19T06:35:19.869Z,99425.66
2023-02-19T06:37:50.851Z,99436.06
2023-02-19T06:40:18.976Z,99435.06
2023-02-19T06:42:45.853Z,99432.66
2023-02-19T06:45:12.830Z,99426.91
2023-02-19T06:47:39.612Z,99431.41
2023-02-19T06:50:06.721Z,99442.59
2023-02-19T06:52:33.531Z,99428.84
2023-02-19T06:55:00.312Z,99432.00
2023-02-19T06:57:27.253Z,99430.75
2023-02-19T06:59:54.031Z,99425.41
2023-02-19T07:02:20.793Z,99437.94
2023-02-19T07:04:47.656Z,99437.84
2023-02-19T07:07:14.432Z,99431.13
2023-02-19T07:09:41.270Z,99411.34
2023-02-19T07:12:08.396Z,99420.16
2023-02-19T07:14:35.257Z,99413.41
2023-02-19T07:17:02.202Z,99427.53
2023-02-19T07:19:29.026Z,99420.72
2023-02-19T07:21:55.998Z,99440.53
2023-02-19T07:24:22.897Z,99436.81
2023-02-19T07:26:50.341Z,99439.56
2023-02-19T07:29:17.444Z,99442.31
2023-02-19T07:31:44.484Z,99443.16
2023-02-19T07:34:11.550Z,99449.50
2023-02-19T07:36:38.510Z,99434.91
2023-02-19T07:39:05.466Z,99442.84
2023-02-19T07:41:32.892Z,99446.25
2023-02-19T07:43:59.828Z,99427.09
2023-02-19T07:46:27.341Z,99438.31
2023-02-19T07:48:54.189Z,99424.34
2023-02-19T07:51:21.085Z,99427.59
2023-02-19T07:53:52.682Z,99417.69
2023-02-19T07:56:20.191Z,99417.53
2023-02-19T07:58:47.169Z,99419.47
2023-02-19T08:01:40.179Z,99427.06
2023-02-19T08:04:07.293Z,99419.91
2023-02-19T08:06:34.202Z,99426.72
2023-02-19T08:09:00.958Z,99437.91
2023-02-19T08:11:46.293Z,99450.25
2023-02-19T08:14:13.126Z,99424.59
2023-02-19T08:16:43.292Z,99447.16
2023-02-19T08:19:10.565Z,99425.06
2023-02-19T08:21:37.418Z,99444.41
2023-02-19T08:24:04.547Z,99431.94
2023-02-19T08:26:32.620Z,99447.00
2023-02-19T08:28:59.372Z,99446.16
2023-02-19T08:31:27.257Z,99461.78
2023-02-19T08:33:55.168Z,99454.81
2023-02-19T08:36:22.130Z,99465.44
2023-02-19T08:38:49.069Z,99454.69
2023-02-19T08:41:16.324Z,99461.69
2023-02-19T08:43:43.539Z,99468.69
2023-02-19T08:46:12.623Z,99458.59
2023-02-19T08:48:40.823Z,99460.03
2023-02-19T08:51:10.293Z,99463.75
2023-02-19T08:53:38.913Z,99451.19
2023-02-19T08:56:11.716Z,99447.63
2023-02-19T08:58:39.129Z,99442.78
2023-02-19T09:01:15.357Z,99440.78
2023-02-19T09:03:43.143Z,99433.69
2023-02-19T09:06:19.252Z,99428.69
2023-02-19T09:08:46.276Z,99423.16
2023-02-19T09:11:14.046Z,99443.75
2023-02-19T09:13:41.075Z,99440.50
2023-02-19T09:16:08.462Z,99443.28
2023-02-19T09:18:35.715Z,99436.38
2023-02-19T09:21:04.993Z,99444.72
2023-02-19T09:23:36.258Z,99442.66
2023-02-19T09:26:06.849Z,99433.09
2023-02-19T09:28:33.939Z,99437.53
2023-02-19T09:31:09.004Z,99427.88
2023-02-19T09:33:36.230Z,99425.22
2023-02-19T09:36:04.154Z,99420.38
2023-02-19T09:38:31.142Z,99425.63
2023-02-19T09:40:59.203Z,99423.78
2023-02-19T09:43:29.491Z,99433.50
2023-02-19T09:46:23.285Z,99417.78
2023-02-19T09:48:51.680Z,99420.91
2023-02-19T09:51:18.841Z,99412.91
2023-02-19T09:53:49.946Z,99410.66
2023-02-19T09:56:18.036Z,99399.66
2023-02-19T09:58:56.759Z,99404.03
2023-02-19T10:01:28.230Z,99410.84
2023-02-19T10:03:54.890Z,99391.91
2023-02-19T10:06:24.315Z,99385.31
2023-02-19T10:09:11.255Z,99377.00
2023-02-19T10:11:38.161Z,99381.03
2023-02-19T10:14:09.402Z,99379.66
2023-02-19T10:16:40.869Z,99361.03
2023-02-19T10:19:13.981Z,99357.91
2023-02-19T10:21:41.899Z,99356.97
2023-02-19T10:24:16.704Z,99347.47
2023-02-19T10:26:43.747Z,99346.75
2023-02-19T10:29:10.602Z,99345.59
2023-02-19T10:31:37.651Z,99357.25
2023-02-19T10:34:06.588Z,99339.13
2023-02-19T10:36:39.192Z,99325.47
2023-02-19T10:39:35.287Z,99352.38
2023-02-19T10:42:03.135Z,99331.56
2023-02-19T10:44:38.804Z,99331.50
2023-02-19T10:47:06.269Z,99337.81
2023-02-19T10:49:37.504Z,99344.94
2023-02-19T10:52:27.727Z,99326.59
2023-02-19T10:54:57.900Z,99343.44
2023-02-19T10:57:33.133Z,99341.94
2023-02-19T11:00:22.871Z,99283.81
2023-02-19T11:02:50.329Z,99332.44
2023-02-19T11:05:20.888Z,99328.75
2023-02-19T11:07:56.587Z,99323.56
2023-02-19T11:10:27.034Z,99320.00
2023-02-19T11:13:04.219Z,99320.91
2023-02-19T11:15:35.940Z,99311.47
2023-02-19T11:18:28.929Z,99307.69
2023-02-19T11:21:05.460Z,99314.53
2023-02-19T11:23:45.508Z,99305.47
2023-02-19T11:26:28.022Z,99294.16
2023-02-19T11:29:01.014Z,99289.03
2023-02-19T11:31:35.371Z,99290.97
2023-02-19T11:34:14.511Z,99287.97
2023-02-19T11:36:42.798Z,99290.72
2023-02-19T11:39:15.934Z,99283.00
2023-02-19T11:41:54.858Z,99280.13
2023-02-19T11:44:51.114Z,99275.00
2023-02-19T11:47:51.982Z,99280.41
2023-02-19T11:50:39.374Z,99284.94
2023-02-19T11:53:41.639Z,99276.81
2023-02-19T11:56:08.571Z,99272.44
2023-02-19T11:59:00.881Z,99281.50
2023-02-19T12:01:50.286Z,99274.19
2023-02-19T12:04:26.236Z,99271.09
2023-02-19T12:07:16.480Z,99273.63
2023-02-19T12:10:05.666Z,99280.78
2023-02-19T12:12:47.583Z,99279.78
2023-02-19T12:15:25.253Z,99267.16
2023-02-19T12:18:27.822Z,99202.00
2023-02-19T12:21:14.062Z,99225.66
2023-02-19T12:24:08.612Z,99258.31
2023-02-19T12:27:16.872Z,99264.19
2023-02-19T12:30:01.673Z,99245.06
2023-02-19T12:32:37.693Z,99254.50
2023-02-19T12:35:41.861Z,99263.13
2023-02-19T12:38:11.881Z,99254.72
2023-02-19T12:40:50.660Z,99244.56
2023-02-19T12:43:20.700Z,99236.47
2023-02-19T12:46:01.841Z,99234.50
2023-02-19T12:48:46.389Z,99233.19
2023-02-19T12:51:33.104Z,99247.34
2023-02-19T12:54:21.880Z,99241.22
2023-02-19T12:56:54.661Z,99225.88
2023-02-19T12:59:43.311Z,99200.13
2023-02-19T13:02:21.993Z,99219.38
2023-02-19T13:04:51.885Z,99205.84
2023-02-19T13:07:31.092Z,99203.53
2023-02-19T13:10:06.555Z,99205.50
2023-02-19T13:12:38.477Z,99198.91
2023-02-19T13:15:18.899Z,99200.06
2023-02-19T13:17:50.518Z,99203.34
2023-02-19T13:20:20.454Z,99207.59
2023-02-19T13:23:46.009Z,99187.03
2023-02-19T13:26:38.885Z,99206.41
2023-02-19T13:29:36.310Z,99212.13
2023-02-19T13:32:40.555Z,99205.97
2023-02-19T13:35:25.635Z,99211.50
2023-02-19T13:37:54.697Z,99195.91
2023-02-19T13:40:31.458Z,99185.88
2023-02-19T13:43:01.924Z,99171.19
2023-02-19T13:45:34.679Z,99189.81
2023-02-19T13:48:26.458Z,99175.91
2023-02-19T13:51:11.840Z,99183.53
2023-02-19T13:54:00.128Z,99181.09
2023-02-19T13:56:29.895Z,99170.78
2023-02-19T13:59:18.248Z,99172.59
2023-02-19T14:01:54.022Z,99176.91
2023-02-19T14:04:55.533Z,99173.72
2023-02-19T14:07:35.015Z,99167.16
2023-02-19T14:10:03.877Z,99177.91
2023-02-19T14:12:36.152Z,99180.16
2023-02-19T14:15:36.992Z,99181.06
2023-02-19T14:18:23.910Z,99173.59
2023-02-19T14:21:07.301Z,99177.09
2023-02-19T14:23:34.156Z,99183.75
2023-02-19T14:26:03.704Z,99184.00
2023-02-19T14:28:45.577Z,99183.38
2023-02-19T14:31:19.463Z,99175.31
2023-02-19T14:34:09.265Z,99172.94
2023-02-19T14:36:44.340Z,99172.41
2023-02-19T14:39:23.032Z,99174.81
2023-02-19T14:41:59.337Z,99170.00
2023-02-19T14:44:30.999Z,99169.19
2023-02-19T14:47:06.678Z,99167.06
2023-02-19T14:49:46.289Z,99169.13
2023-02-19T14:52:28.529Z,99162.84
2023-02-19T14:55:00.831Z,99167.59
2023-02-19T14:57:30.559Z,99161.94
2023-02-19T15:00:19.945Z,99158.44
2023-02-19T15:02:46.816Z,99151.78
2023-02-19T15:05:18.600Z,99152.34
2023-02-19T15:07:45.802Z,99160.13
2023-02-19T15:10:14.593Z,99146.34
2023-02-19T15:12:49.614Z,99152.81
2023-02-19T15:15:24.675Z,99144.56
2023-02-19T15:17:53.856Z,99143.38
2023-02-19T15:20:25.639Z,99151.63
2023-02-19T15:22:53.786Z,99146.94
2023-02-19T15:25:23.353Z,99144.34
2023-02-19T15:27:50.490Z,99132.03
2023-02-19T15:30:27.645Z,99126.19
2023-02-19T15:32:56.557Z,99139.34
2023-02-19T15:35:25.274Z,99142.03
2023-02-19T15:37:55.174Z,99143.44
2023-02-19T15:40:32.485Z,99134.59
2023-02-19T15:43:24.746Z,99143.94
2023-02-19T15:45:56.189Z,99148.47
2023-02-19T15:48:27.462Z,99137.75
2023-02-19T15:51:08.095Z,99141.69
2023-02-19T15:53:41.356Z,99149.78
2023-02-19T15:56:29.418Z,99156.16
2023-02-19T15:59:07.072Z,99166.22
2023-02-19T16:01:39.090Z,99147.53
2023-02-19T16:04:15.806Z,99156.41
2023-02-19T16:07:02.793Z,99163.22
2023-02-19T16:09:37.415Z,99168.13
2023-02-19T16:12:22.257Z,99167.88
2023-02-19T16:14:49.422Z,99158.88
2023-02-19T16:17:21.383Z,99158.28
2023-02-19T16:20:02.436Z,99165.44
2023-02-19T16:25:37.213Z,99170.16
2023-02-19T16:28:24.736Z,99146.69
2023-02-19T16:31:10.085Z,99163.09
2023-02-19T16:33:46.503Z,99158.81
2023-02-19T16:36:22.556Z,99175.41
2023-02-19T16:39:08.038Z,99159.22
2023-02-19T16:42:04.238Z,99170.78
2023-02-19T16:44:35.852Z,99161.31
2023-02-19T16:47:06.385Z,99152.44
2023-02-19T16:49:33.822Z,99162.25
2023-02-19T16:52:04.160Z,99162.25
2023-02-19T16:54:31.507Z,99156.00
2023-02-19T16:56:58.349Z,99153.91
2023-02-19T16:59:25.187Z,99159.44
2023-02-19T17:01:52.112Z,99155.28
2023-02-19T17:04:19.113Z,99150.97
2023-02-19T17:06:47.246Z,99155.97
2023-02-19T17:09:14.070Z,99155.38
2023-02-19T17:11:40.856Z,99169.31
2023-02-19T17:14:08.346Z,99161.91
2023-02-19T17:16:40.474Z,99165.97
2023-02-19T17:19:14.468Z,99162.03
2023-02-19T17:21:41.595Z,99167.44
2023-02-19T17:24:08.491Z,99174.81
2023-02-19T17:26:35.355Z,99167.88
2023-02-19T17:29:05.101Z,99171.31
2023-02-19T17:31:34.934Z,99163.28
2023-02-19T17:34:09.924Z,99179.53
2023-02-19T17:39:32.746Z,99165.28
2023-02-19T17:41:59.591Z,99145.38
2023-02-19T17:44:26.343Z,99153.72
2023-02-19T17:46:53.307Z,99161.53
2023-02-19T17:49:20.180Z,99161.03
2023-02-19T17:51:47.033Z,99152.34
2023-02-19T17:54:13.846Z,99144.19
2023-02-19T17:56:43.385Z,99158.81
2023-02-19T17:59:10.948Z,99155.72
2023-02-19T18:01:49.078Z,99157.41
2023-02-19T18:04:16.203Z,99164.06
2023-02-19T18:06:43.374Z,99163.44
2023-02-19T18:11:56.010Z,99164.28
2023-02-19T18:14:22.831Z,99151.63
2023-02-19T18:16:50.502Z,99147.88
2023-02-19T18:19:18.857Z,99159.06
2023-02-19T18:21:45.595Z,99142.69
2023-02-19T18:24:12.413Z,99142.03
2023-02-19T18:26:39.276Z,99147.38
2023-02-19T18:29:06.072Z,99149.72
2023-02-19T18:31:33.769Z,99150.69
2023-02-19T18:34:00.644Z,99137.06
2023-02-19T18:36:27.600Z,99140.63
2023-02-19T18:38:54.391Z,99137.06
2023-02-19T18:41:21.586Z,99150.81
2023-02-19T18:43:48.619Z,99147.44
2023-02-19T18:46:15.601Z,99157.97
2023-02-19T18:48:45.923Z,99148.09
2023-02-19T18:51:13.739Z,99166.09
2023-02-19T18:53:43.514Z,99167.25
2023-02-19T18:56:10.358Z,99151.75
2023-02-19T18:58:37.206Z,99183.28
2023-02-19T19:01:04.193Z,99189.44
2023-02-19T19:03:31.881Z,99180.75
2023-02-19T19:05:58.741Z,99183.06
2023-02-19T19:08:26.186Z,99169.91
2023-02-19T19:10:52.941Z,99200.81
2023-02-19T19:13:19.840Z,99205.31
2023-02-19T19:15:50.973Z,99190.09
2023-02-19T19:18:18.453Z,99213.63
2023-02-19T19:20:45.378Z,99213.63
2023-02-19T19:23:12.848Z,99213.47
2023-02-19T19:25:39.727Z,99225.81
2023-02-19T19:28:06.508Z,99223.56
2023-02-19T19:30:33.885Z,99225.81
2023-02-19T19:33:01.756Z,99228.09
2023-02-19T19:35:28.729Z,99227.75
2023-02-19T19:37:55.572Z,99240.94
2023-02-19T19:40:22.475Z,99233.47
2023-02-19T19:42:52.442Z,99237.84
2023-02-19T19:45:19.594Z,99233.81
2023-02-19T19:47:52.970Z,99241.56
2023-02-19T19:50:20.158Z,99230.84
2023-02-19T19:52:46.948Z,99225.25
2023-02-19T19:55:13.866Z,99229.44
2023-02-19T19:57:41.098Z,99222.66
2023-02-19T20:00:09.458Z,99230.94
2023-02-19T20:02:39.218Z,99228.84
2023-02-19T20:05:06.921Z,99214.56
2023-02-19T20:07:33.944Z,99222.38
2023-02-19T20:10:00.817Z,99227.22
2023-02-19T20:12:27.782Z,99221.41
2023-02-19T20:14:54.648Z,99214.28
2023-02-19T20:17:21.717Z,99230.63
2023-02-19T20:19:48.588Z,99227.81
2023-02-19T20:22:15.449Z,99231.34
2023-02-19T20:24:42.340Z,99223.56
2023-02-19T20:27:09.158Z,99226.41
2023-02-19T20:29:36.308Z,99216.81
2023-02-19T20:32:03.837Z,99213.06
2023-02-19T20:34:31.043Z,99204.69
2023-02-19T20:36:58.020Z,99227.59
2023-02-19T20:39:28.899Z,99228.56
2023-02-19T20:41:56.946Z,99223.56
2023-02-19T20:44:24.616Z,99221.91
2023-02-19T20:46:52.578Z,99233.78
2023-02-19T20:49:22.320Z,99237.19
2023-02-19T20:51:53.239Z,99236.56
2023-02-19T20:54:22.639Z,99226.84
2023-02-19T20:56:52.475Z,99246.47
2023-02-19T20:59:21.673Z,99245.75
2023-02-19T21:01:49.097Z,99249.50
2023-02-19T21:04:17.712Z,99266.44
2023-02-19T21:06:45.169Z,99275.47
2023-02-19T21:09:12.733Z,99275.31
2023-02-19T21:11:39.693Z,99277.94
2023-02-19T21:14:06.495Z,99281.53
2023-02-19T21:16:33.750Z,99283.28
2023-02-19T21:19:00.644Z,99268.22
2023-02-19T21:21:28.024Z,99279.38
2023-02-19T21:23:56.731Z,99278.28
2023-02-19T21:26:24.285Z,99279.09
2023-02-19T21:28:52.097Z,99268.88
2023-02-19T21:31:19.792Z,99265.00
2023-02-19T21:33:47.179Z,99267.44
2023-02-19T21:36:14.357Z,99263.72
2023-02-19T21:38:41.209Z,99265.84
2023-02-19T21:41:08.051Z,99283.06
2023-02-19T21:43:34.891Z,99282.19
2023-02-19T21:46:01.849Z,99248.03
2023-02-19T21:48:28.819Z,99289.25
2023-02-19T21:50:55.702Z,99295.06
2023-02-19T21:53:22.449Z,99288.56
2023-02-19T21:55:58.334Z,99295.38
2023-02-19T21:58:26.276Z,99306.09
2023-02-19T22:00:54.150Z,99304.47
2023-02-19T22:03:21.314Z,99296.38
2023-02-19T22:05:48.118Z,99294.09
2023-02-19T22:08:17.378Z,99304.38
2023-02-19T22:10:44.636Z,99296.69
2023-02-19T22:13:11.591Z,99291.38
2023-02-19T22:15:38.379Z,99302.56
2023-02-19T22:18:05.605Z,99296.56
2023-02-19T22:20:32.441Z,99298.38
2023-02-19T22:22:59.217Z,99305.97
2023-02-19T22:25:26.007Z,99298.66
2023-02-19T22:27:52.822Z,99300.94
2023-02-19T22:30:19.809Z,99291.06
2023-02-19T22:32:46.744Z,99281.88
2023-02-19T22:35:15.665Z,99286.69
2023-02-19T22:37:42.721Z,99292.72
2023-02-19T22:40:10.007Z,99298.06
2023-02-19T22:42:37.946Z,99302.16
2023-02-19T22:45:05.953Z,99304.09
2023-02-19T22:47:32.702Z,99304.25
2023-02-19T22:49:59.486Z,99292.59
2023-02-19T22:52:28.172Z,99293.91
2023-02-19T22:54:55.825Z,99294.22
2023-02-19T22:57:22.947Z,99307.03
2023-02-19T22:59:49.790Z,99295.38
2023-02-19T23:02:16.628Z,99297.16
2023-02-19T23:04:43.544Z,99297.66
2023-02-19T23:07:10.965Z,99288.41
2023-02-19T23:09:37.761Z,99283.09
2023-02-19T23:12:08.285Z,99273.03
2023-02-19T23:14:35.261Z,99273.22
2023-02-19T23:17:02.508Z,99278.25
2023-02-19T23:19:29.616Z,99268.00
2023-02-19T23:21:56.820Z,99275.00
2023-02-19T23:24:23.744Z,99270.63
2023-02-19T23:26:53.001Z,99276.81
2023-02-19T23:29:25.185Z,99275.53
2023-02-19T23:31:52.909Z,99267.41
2023-02-19T23:34:20.054Z,99271.47
2023-02-19T23:36:49.342Z,99276.50
2023-02-19T23:39:18.544Z,99275.03
2023-02-19T23:41:48.482Z,99272.13
2023-02-19T23:44:16.183Z,99270.03
2023-02-19T23:46:43.450Z,99283.50
2023-02-19T23:49:10.610Z,99290.97
2023-02-19T23:51:37.836Z,99297.59
2023-02-19T23:54:05.054Z,99289.34
2023-02-19T23:56:32.044Z,99290.97
2023-02-19T23:58:59.290Z,99297.44
